sensor_id;sensor_type;location;lat;lon;timestamp;P1;durP1;ratioP1;P2;durP2;ratioP2
31728;SDS011;18309;43.658;1.312;2024-02-23T00:00:50;18.88;;;2.75;;
31728;SDS011;18309;43.658;1.312;2024-02-23T00:03:16;27.60;;;4.28;;
31728;SDS011;18309;43.658;1.312;2024-02-23T00:05:41;18.35;;;3.00;;
31728;SDS011;18309;43.658;1.312;2024-02-23T00:08:07;20.40;;;2.63;;
31728;SDS011;18309;43.658;1.312;2024-02-23T00:10:34;23.40;;;2.75;;
31728;SDS011;18309;43.658;1.312;2024-02-23T00:13:00;20.88;;;2.95;;
31728;SDS011;18309;43.658;1.312;2024-02-23T00:15:26;23.15;;;3.30;;
31728;SDS011;18309;43.658;1.312;2024-02-23T00:17:51;20.65;;;2.92;;
31728;SDS011;18309;43.658;1.312;2024-02-23T00:20:17;20.27;;;3.15;;
31728;SDS011;18309;43.658;1.312;2024-02-23T00:22:43;19.20;;;3.08;;
31728;SDS011;18309;43.658;1.312;2024-02-23T00:25:08;18.63;;;3.35;;
31728;SDS011;18309;43.658;1.312;2024-02-23T00:27:34;28.90;;;3.60;;
31728;SDS011;18309;43.658;1.312;2024-02-23T00:30:00;20.63;;;3.10;;
31728;SDS011;18309;43.658;1.312;2024-02-23T00:32:25;24.00;;;3.35;;
31728;SDS011;18309;43.658;1.312;2024-02-23T00:34:51;22.58;;;3.55;;
31728;SDS011;18309;43.658;1.312;2024-02-23T00:37:17;28.52;;;3.83;;
31728;SDS011;18309;43.658;1.312;2024-02-23T00:39:42;25.33;;;4.07;;
31728;SDS011;18309;43.658;1.312;2024-02-23T00:42:08;27.70;;;4.00;;
31728;SDS011;18309;43.658;1.312;2024-02-23T00:44:33;25.30;;;4.47;;
31728;SDS011;18309;43.658;1.312;2024-02-23T00:46:59;17.38;;;3.10;;
31728;SDS011;18309;43.658;1.312;2024-02-23T00:49:27;24.70;;;3.47;;
31728;SDS011;18309;43.658;1.312;2024-02-23T00:51:53;25.23;;;3.15;;
31728;SDS011;18309;43.658;1.312;2024-02-23T00:54:20;19.35;;;2.30;;
31728;SDS011;18309;43.658;1.312;2024-02-23T00:56:46;21.63;;;3.15;;
31728;SDS011;18309;43.658;1.312;2024-02-23T00:59:11;19.45;;;2.42;;
31728;SDS011;18309;43.658;1.312;2024-02-23T01:01:37;19.23;;;2.50;;
31728;SDS011;18309;43.658;1.312;2024-02-23T01:04:03;19.33;;;2.28;;
31728;SDS011;18309;43.658;1.312;2024-02-23T01:06:29;19.17;;;3.13;;
31728;SDS011;18309;43.658;1.312;2024-02-23T01:08:54;17.48;;;2.92;;
31728;SDS011;18309;43.658;1.312;2024-02-23T01:11:20;20.23;;;3.38;;
31728;SDS011;18309;43.658;1.312;2024-02-23T01:13:46;21.85;;;3.13;;
31728;SDS011;18309;43.658;1.312;2024-02-23T01:16:11;25.70;;;4.05;;
31728;SDS011;18309;43.658;1.312;2024-02-23T01:18:37;22.13;;;3.65;;
31728;SDS011;18309;43.658;1.312;2024-02-23T01:21:03;28.42;;;4.53;;
31728;SDS011;18309;43.658;1.312;2024-02-23T01:23:28;16.55;;;3.15;;
31728;SDS011;18309;43.658;1.312;2024-02-23T01:25:54;24.00;;;3.65;;
31728;SDS011;18309;43.658;1.312;2024-02-23T01:28:19;26.63;;;4.00;;
31728;SDS011;18309;43.658;1.312;2024-02-23T01:30:45;31.38;;;3.25;;
31728;SDS011;18309;43.658;1.312;2024-02-23T01:33:11;26.65;;;3.38;;
31728;SDS011;18309;43.658;1.312;2024-02-23T01:35:36;21.63;;;2.67;;
31728;SDS011;18309;43.658;1.312;2024-02-23T01:38:02;27.80;;;3.22;;
31728;SDS011;18309;43.658;1.312;2024-02-23T01:40:28;31.58;;;3.92;;
31728;SDS011;18309;43.658;1.312;2024-02-23T01:43:03;31.83;;;3.47;;
31728;SDS011;18309;43.658;1.312;2024-02-23T01:45:29;30.45;;;4.35;;
31728;SDS011;18309;43.658;1.312;2024-02-23T01:47:56;27.65;;;4.18;;
31728;SDS011;18309;43.658;1.312;2024-02-23T01:50:22;23.13;;;4.00;;
31728;SDS011;18309;43.658;1.312;2024-02-23T01:52:49;28.58;;;3.85;;
31728;SDS011;18309;43.658;1.312;2024-02-23T01:55:17;27.27;;;4.65;;
31728;SDS011;18309;43.658;1.312;2024-02-23T01:57:45;35.95;;;4.97;;
31728;SDS011;18309;43.658;1.312;2024-02-23T02:00:11;33.55;;;5.03;;
31728;SDS011;18309;43.658;1.312;2024-02-23T02:02:41;27.00;;;4.00;;
31728;SDS011;18309;43.658;1.312;2024-02-23T02:05:06;25.33;;;3.50;;
31728;SDS011;18309;43.658;1.312;2024-02-23T02:07:32;25.25;;;3.42;;
31728;SDS011;18309;43.658;1.312;2024-02-23T02:09:58;20.77;;;3.50;;
31728;SDS011;18309;43.658;1.312;2024-02-23T02:12:28;25.20;;;3.22;;
31728;SDS011;18309;43.658;1.312;2024-02-23T02:14:54;26.60;;;2.88;;
31728;SDS011;18309;43.658;1.312;2024-02-23T02:17:20;22.27;;;2.75;;
31728;SDS011;18309;43.658;1.312;2024-02-23T02:19:50;23.25;;;3.85;;
31728;SDS011;18309;43.658;1.312;2024-02-23T02:22:15;19.90;;;3.38;;
31728;SDS011;18309;43.658;1.312;2024-02-23T02:24:41;19.10;;;2.60;;
31728;SDS011;18309;43.658;1.312;2024-02-23T02:27:08;24.33;;;3.80;;
31728;SDS011;18309;43.658;1.312;2024-02-23T02:29:35;17.73;;;3.58;;
31728;SDS011;18309;43.658;1.312;2024-02-23T02:32:00;18.83;;;2.83;;
31728;SDS011;18309;43.658;1.312;2024-02-23T02:34:27;22.27;;;2.30;;
31728;SDS011;18309;43.658;1.312;2024-02-23T02:36:53;17.30;;;2.90;;
31728;SDS011;18309;43.658;1.312;2024-02-23T02:39:19;20.98;;;2.85;;
31728;SDS011;18309;43.658;1.312;2024-02-23T02:41:45;13.63;;;2.30;;
31728;SDS011;18309;43.658;1.312;2024-02-23T02:44:13;20.27;;;3.00;;
31728;SDS011;18309;43.658;1.312;2024-02-23T02:46:40;23.30;;;3.80;;
31728;SDS011;18309;43.658;1.312;2024-02-23T02:49:06;16.58;;;3.05;;
31728;SDS011;18309;43.658;1.312;2024-02-23T02:51:31;18.20;;;2.25;;
31728;SDS011;18309;43.658;1.312;2024-02-23T02:53:57;19.73;;;3.25;;
31728;SDS011;18309;43.658;1.312;2024-02-23T02:56:23;18.98;;;2.70;;
31728;SDS011;18309;43.658;1.312;2024-02-23T02:58:48;15.68;;;2.30;;
31728;SDS011;18309;43.658;1.312;2024-02-23T03:01:14;21.20;;;2.35;;
31728;SDS011;18309;43.658;1.312;2024-02-23T03:03:40;14.57;;;2.50;;
31728;SDS011;18309;43.658;1.312;2024-02-23T03:06:05;14.70;;;1.88;;
31728;SDS011;18309;43.658;1.312;2024-02-23T03:08:33;15.10;;;2.55;;
31728;SDS011;18309;43.658;1.312;2024-02-23T03:10:59;15.93;;;2.40;;
31728;SDS011;18309;43.658;1.312;2024-02-23T03:13:24;13.95;;;2.20;;
31728;SDS011;18309;43.658;1.312;2024-02-23T03:15:50;17.83;;;1.98;;
31728;SDS011;18309;43.658;1.312;2024-02-23T03:18:16;16.70;;;2.30;;
31728;SDS011;18309;43.658;1.312;2024-02-23T03:20:42;14.57;;;1.77;;
31728;SDS011;18309;43.658;1.312;2024-02-23T03:23:08;12.18;;;1.63;;
31728;SDS011;18309;43.658;1.312;2024-02-23T03:25:33;12.80;;;2.20;;
31728;SDS011;18309;43.658;1.312;2024-02-23T03:27:59;12.88;;;1.80;;
31728;SDS011;18309;43.658;1.312;2024-02-23T03:30:25;16.30;;;2.28;;
31728;SDS011;18309;43.658;1.312;2024-02-23T03:32:51;10.60;;;1.50;;
31728;SDS011;18309;43.658;1.312;2024-02-23T03:35:16;10.27;;;2.13;;
31728;SDS011;18309;43.658;1.312;2024-02-23T03:37:42;10.13;;;1.40;;
31728;SDS011;18309;43.658;1.312;2024-02-23T03:40:08;13.98;;;1.58;;
31728;SDS011;18309;43.658;1.312;2024-02-23T03:42:35;19.98;;;1.85;;
31728;SDS011;18309;43.658;1.312;2024-02-23T03:45:01;17.40;;;1.67;;
31728;SDS011;18309;43.658;1.312;2024-02-23T03:47:27;20.27;;;1.42;;
31728;SDS011;18309;43.658;1.312;2024-02-23T03:49:53;8.18;;;1.60;;
31728;SDS011;18309;43.658;1.312;2024-02-23T03:52:19;6.90;;;1.50;;
31728;SDS011;18309;43.658;1.312;2024-02-23T03:54:45;12.93;;;1.77;;
31728;SDS011;18309;43.658;1.312;2024-02-23T03:57:10;7.78;;;1.38;;
31728;SDS011;18309;43.658;1.312;2024-02-23T03:59:36;15.32;;;2.03;;
31728;SDS011;18309;43.658;1.312;2024-02-23T04:02:02;16.75;;;1.80;;
31728;SDS011;18309;43.658;1.312;2024-02-23T04:04:29;11.38;;;1.25;;
31728;SDS011;18309;43.658;1.312;2024-02-23T04:06:55;19.40;;;2.00;;
31728;SDS011;18309;43.658;1.312;2024-02-23T04:09:20;16.63;;;2.10;;
31728;SDS011;18309;43.658;1.312;2024-02-23T04:11:49;16.48;;;1.88;;
31728;SDS011;18309;43.658;1.312;2024-02-23T04:14:15;9.55;;;1.20;;
31728;SDS011;18309;43.658;1.312;2024-02-23T04:16:40;7.72;;;1.33;;
31728;SDS011;18309;43.658;1.312;2024-02-23T04:19:06;13.43;;;1.50;;
31728;SDS011;18309;43.658;1.312;2024-02-23T04:21:32;12.48;;;1.65;;
31728;SDS011;18309;43.658;1.312;2024-02-23T04:23:57;8.38;;;1.33;;
31728;SDS011;18309;43.658;1.312;2024-02-23T04:26:23;14.30;;;1.60;;
31728;SDS011;18309;43.658;1.312;2024-02-23T04:28:49;9.38;;;1.13;;
31728;SDS011;18309;43.658;1.312;2024-02-23T04:31:14;10.25;;;1.17;;
31728;SDS011;18309;43.658;1.312;2024-02-23T04:33:40;7.53;;;1.00;;
31728;SDS011;18309;43.658;1.312;2024-02-23T04:36:06;7.75;;;1.02;;
31728;SDS011;18309;43.658;1.312;2024-02-23T04:38:32;8.32;;;1.20;;
31728;SDS011;18309;43.658;1.312;2024-02-23T04:41:01;3.78;;;0.73;;
31728;SDS011;18309;43.658;1.312;2024-02-23T04:43:28;6.47;;;0.70;;
31728;SDS011;18309;43.658;1.312;2024-02-23T04:45:53;7.88;;;0.93;;
31728;SDS011;18309;43.658;1.312;2024-02-23T04:48:19;8.38;;;0.70;;
31728;SDS011;18309;43.658;1.312;2024-02-23T04:50:45;8.27;;;0.52;;
31728;SDS011;18309;43.658;1.312;2024-02-23T04:53:10;5.85;;;0.63;;
31728;SDS011;18309;43.658;1.312;2024-02-23T04:55:36;8.52;;;2.00;;
31728;SDS011;18309;43.658;1.312;2024-02-23T04:58:02;13.90;;;1.50;;
31728;SDS011;18309;43.658;1.312;2024-02-23T05:00:28;6.78;;;1.17;;
31728;SDS011;18309;43.658;1.312;2024-02-23T05:02:58;10.38;;;1.30;;
31728;SDS011;18309;43.658;1.312;2024-02-23T05:05:24;5.63;;;0.80;;
31728;SDS011;18309;43.658;1.312;2024-02-23T05:07:50;11.75;;;1.73;;
31728;SDS011;18309;43.658;1.312;2024-02-23T05:10:16;6.80;;;1.35;;
31728;SDS011;18309;43.658;1.312;2024-02-23T05:12:42;5.18;;;1.33;;
31728;SDS011;18309;43.658;1.312;2024-02-23T05:15:08;12.80;;;2.47;;
31728;SDS011;18309;43.658;1.312;2024-02-23T05:17:34;6.50;;;1.45;;
31728;SDS011;18309;43.658;1.312;2024-02-23T05:19:59;10.93;;;1.63;;
31728;SDS011;18309;43.658;1.312;2024-02-23T05:22:25;9.70;;;1.50;;
31728;SDS011;18309;43.658;1.312;2024-02-23T05:24:51;7.00;;;0.90;;
31728;SDS011;18309;43.658;1.312;2024-02-23T05:27:16;6.75;;;0.70;;
31728;SDS011;18309;43.658;1.312;2024-02-23T05:29:42;4.07;;;1.02;;
31728;SDS011;18309;43.658;1.312;2024-02-23T05:32:08;6.88;;;0.80;;
31728;SDS011;18309;43.658;1.312;2024-02-23T05:34:33;5.55;;;0.68;;
31728;SDS011;18309;43.658;1.312;2024-02-23T05:37:00;7.15;;;0.70;;
31728;SDS011;18309;43.658;1.312;2024-02-23T05:39:26;5.55;;;0.73;;
31728;SDS011;18309;43.658;1.312;2024-02-23T05:41:52;6.13;;;1.23;;
31728;SDS011;18309;43.658;1.312;2024-02-23T05:44:18;7.85;;;0.95;;
31728;SDS011;18309;43.658;1.312;2024-02-23T05:46:44;8.80;;;1.02;;
31728;SDS011;18309;43.658;1.312;2024-02-23T05:49:09;4.68;;;0.85;;
31728;SDS011;18309;43.658;1.312;2024-02-23T05:51:35;5.95;;;0.60;;
31728;SDS011;18309;43.658;1.312;2024-02-23T05:54:00;4.70;;;0.40;;
31728;SDS011;18309;43.658;1.312;2024-02-23T05:56:26;7.72;;;0.73;;
31728;SDS011;18309;43.658;1.312;2024-02-23T05:58:52;5.90;;;0.98;;
31728;SDS011;18309;43.658;1.312;2024-02-23T06:01:18;4.10;;;0.40;;
31728;SDS011;18309;43.658;1.312;2024-02-23T06:03:44;3.97;;;0.50;;
31728;SDS011;18309;43.658;1.312;2024-02-23T06:06:10;8.10;;;0.60;;
31728;SDS011;18309;43.658;1.312;2024-02-23T06:08:36;11.00;;;0.98;;
31728;SDS011;18309;43.658;1.312;2024-02-23T06:11:02;6.07;;;0.55;;
31728;SDS011;18309;43.658;1.312;2024-02-23T06:13:32;2.42;;;0.50;;
31728;SDS011;18309;43.658;1.312;2024-02-23T06:15:59;4.95;;;0.60;;
31728;SDS011;18309;43.658;1.312;2024-02-23T06:18:24;18.58;;;0.85;;
31728;SDS011;18309;43.658;1.312;2024-02-23T06:20:50;5.25;;;0.80;;
31728;SDS011;18309;43.658;1.312;2024-02-23T06:23:16;7.22;;;0.95;;
31728;SDS011;18309;43.658;1.312;2024-02-23T06:25:42;9.63;;;1.02;;
31728;SDS011;18309;43.658;1.312;2024-02-23T06:28:09;7.70;;;0.80;;
31728;SDS011;18309;43.658;1.312;2024-02-23T06:30:35;7.55;;;1.20;;
31728;SDS011;18309;43.658;1.312;2024-02-23T06:33:01;6.40;;;0.88;;
31728;SDS011;18309;43.658;1.312;2024-02-23T06:35:27;6.03;;;0.73;;
31728;SDS011;18309;43.658;1.312;2024-02-23T06:37:52;3.92;;;0.60;;
31728;SDS011;18309;43.658;1.312;2024-02-23T06:40:18;13.02;;;1.33;;
31728;SDS011;18309;43.658;1.312;2024-02-23T06:42:44;8.15;;;1.08;;
31728;SDS011;18309;43.658;1.312;2024-02-23T06:45:09;8.30;;;0.90;;
31728;SDS011;18309;43.658;1.312;2024-02-23T06:47:35;10.32;;;1.15;;
31728;SDS011;18309;43.658;1.312;2024-02-23T06:50:01;7.82;;;0.75;;
31728;SDS011;18309;43.658;1.312;2024-02-23T06:52:28;6.15;;;1.02;;
31728;SDS011;18309;43.658;1.312;2024-02-23T06:54:54;7.80;;;1.13;;
31728;SDS011;18309;43.658;1.312;2024-02-23T06:57:19;10.57;;;1.25;;
31728;SDS011;18309;43.658;1.312;2024-02-23T06:59:45;5.40;;;0.95;;
31728;SDS011;18309;43.658;1.312;2024-02-23T07:02:11;9.65;;;0.80;;
31728;SDS011;18309;43.658;1.312;2024-02-23T07:04:36;8.82;;;1.05;;
31728;SDS011;18309;43.658;1.312;2024-02-23T07:07:02;4.57;;;0.60;;
31728;SDS011;18309;43.658;1.312;2024-02-23T07:09:32;7.95;;;0.63;;
31728;SDS011;18309;43.658;1.312;2024-02-23T07:11:58;6.20;;;1.25;;
31728;SDS011;18309;43.658;1.312;2024-02-23T07:14:24;5.55;;;1.80;;
31728;SDS011;18309;43.658;1.312;2024-02-23T07:16:50;7.15;;;1.55;;
31728;SDS011;18309;43.658;1.312;2024-02-23T07:19:19;5.13;;;1.17;;
31728;SDS011;18309;43.658;1.312;2024-02-23T07:21:47;6.50;;;0.73;;
31728;SDS011;18309;43.658;1.312;2024-02-23T07:24:13;2.75;;;0.60;;
31728;SDS011;18309;43.658;1.312;2024-02-23T07:26:39;2.95;;;0.63;;
31728;SDS011;18309;43.658;1.312;2024-02-23T07:29:05;2.53;;;0.57;;
31728;SDS011;18309;43.658;1.312;2024-02-23T07:31:32;6.85;;;0.80;;
31728;SDS011;18309;43.658;1.312;2024-02-23T07:33:57;9.73;;;0.50;;
31728;SDS011;18309;43.658;1.312;2024-02-23T07:36:23;1.98;;;0.70;;
31728;SDS011;18309;43.658;1.312;2024-02-23T07:38:48;5.50;;;0.90;;
31728;SDS011;18309;43.658;1.312;2024-02-23T07:41:14;3.33;;;0.50;;
31728;SDS011;18309;43.658;1.312;2024-02-23T07:43:42;3.47;;;0.40;;
31728;SDS011;18309;43.658;1.312;2024-02-23T07:46:08;3.42;;;0.30;;
31728;SDS011;18309;43.658;1.312;2024-02-23T07:48:34;3.92;;;0.35;;
31728;SDS011;18309;43.658;1.312;2024-02-23T07:51:01;9.18;;;1.55;;
31728;SDS011;18309;43.658;1.312;2024-02-23T07:53:28;2.40;;;0.55;;
31728;SDS011;18309;43.658;1.312;2024-02-23T07:55:54;4.05;;;0.50;;
31728;SDS011;18309;43.658;1.312;2024-02-23T07:58:20;3.95;;;0.60;;
31728;SDS011;18309;43.658;1.312;2024-02-23T08:00:46;4.75;;;0.73;;
31728;SDS011;18309;43.658;1.312;2024-02-23T08:03:12;2.55;;;0.50;;
31728;SDS011;18309;43.658;1.312;2024-02-23T08:05:37;12.50;;;0.98;;
31728;SDS011;18309;43.658;1.312;2024-02-23T08:08:03;4.13;;;0.63;;
31728;SDS011;18309;43.658;1.312;2024-02-23T08:10:29;10.27;;;0.70;;
31728;SDS011;18309;43.658;1.312;2024-02-23T08:12:55;5.88;;;0.85;;
31728;SDS011;18309;43.658;1.312;2024-02-23T08:15:20;5.05;;;0.77;;
31728;SDS011;18309;43.658;1.312;2024-02-23T08:17:46;4.75;;;0.63;;
31728;SDS011;18309;43.658;1.312;2024-02-23T08:20:12;3.75;;;0.75;;
31728;SDS011;18309;43.658;1.312;2024-02-23T08:22:37;9.52;;;1.25;;
31728;SDS011;18309;43.658;1.312;2024-02-23T08:25:03;6.18;;;0.70;;
31728;SDS011;18309;43.658;1.312;2024-02-23T08:27:32;7.07;;;1.25;;
31728;SDS011;18309;43.658;1.312;2024-02-23T08:29:58;9.38;;;1.42;;
31728;SDS011;18309;43.658;1.312;2024-02-23T08:32:24;7.45;;;1.00;;
31728;SDS011;18309;43.658;1.312;2024-02-23T08:34:50;9.70;;;0.77;;
31728;SDS011;18309;43.658;1.312;2024-02-23T08:37:18;9.48;;;1.00;;
31728;SDS011;18309;43.658;1.312;2024-02-23T08:39:43;5.47;;;0.63;;
31728;SDS011;18309;43.658;1.312;2024-02-23T08:42:09;7.25;;;0.70;;
31728;SDS011;18309;43.658;1.312;2024-02-23T08:44:35;13.45;;;0.68;;
31728;SDS011;18309;43.658;1.312;2024-02-23T08:47:01;17.60;;;0.98;;
31728;SDS011;18309;43.658;1.312;2024-02-23T08:49:27;8.88;;;1.02;;
31728;SDS011;18309;43.658;1.312;2024-02-23T08:51:53;6.45;;;1.30;;
31728;SDS011;18309;43.658;1.312;2024-02-23T08:54:18;4.68;;;0.90;;
31728;SDS011;18309;43.658;1.312;2024-02-23T08:56:44;7.15;;;1.17;;
31728;SDS011;18309;43.658;1.312;2024-02-23T08:59:10;7.35;;;0.80;;
31728;SDS011;18309;43.658;1.312;2024-02-23T09:01:35;6.20;;;1.20;;
31728;SDS011;18309;43.658;1.312;2024-02-23T09:04:01;7.60;;;0.85;;
31728;SDS011;18309;43.658;1.312;2024-02-23T09:06:27;7.97;;;1.33;;
31728;SDS011;18309;43.658;1.312;2024-02-23T09:08:53;3.53;;;0.80;;
31728;SDS011;18309;43.658;1.312;2024-02-23T09:11:19;6.90;;;1.10;;
31728;SDS011;18309;43.658;1.312;2024-02-23T09:13:44;5.82;;;0.90;;
31728;SDS011;18309;43.658;1.312;2024-02-23T09:16:10;5.18;;;0.68;;
31728;SDS011;18309;43.658;1.312;2024-02-23T09:18:36;1.20;;;0.32;;
31728;SDS011;18309;43.658;1.312;2024-02-23T09:21:02;7.93;;;0.98;;
31728;SDS011;18309;43.658;1.312;2024-02-23T09:23:27;3.42;;;0.73;;
31728;SDS011;18309;43.658;1.312;2024-02-23T09:25:53;8.85;;;1.27;;
31728;SDS011;18309;43.658;1.312;2024-02-23T09:28:19;5.53;;;0.80;;
31728;SDS011;18309;43.658;1.312;2024-02-23T09:30:45;5.70;;;0.80;;
31728;SDS011;18309;43.658;1.312;2024-02-23T09:33:11;5.70;;;0.55;;
31728;SDS011;18309;43.658;1.312;2024-02-23T09:35:37;2.05;;;0.47;;
31728;SDS011;18309;43.658;1.312;2024-02-23T09:38:02;5.68;;;0.65;;
31728;SDS011;18309;43.658;1.312;2024-02-23T09:40:28;5.38;;;0.43;;
31728;SDS011;18309;43.658;1.312;2024-02-23T09:42:55;5.57;;;0.60;;
31728;SDS011;18309;43.658;1.312;2024-02-23T09:45:22;5.07;;;0.93;;
31728;SDS011;18309;43.658;1.312;2024-02-23T09:47:54;2.50;;;0.47;;
31728;SDS011;18309;43.658;1.312;2024-02-23T09:50:22;2.67;;;0.43;;
31728;SDS011;18309;43.658;1.312;2024-02-23T09:52:49;6.03;;;0.77;;
31728;SDS011;18309;43.658;1.312;2024-02-23T09:55:18;2.30;;;0.70;;
31728;SDS011;18309;43.658;1.312;2024-02-23T09:57:44;3.55;;;0.63;;
31728;SDS011;18309;43.658;1.312;2024-02-23T10:00:11;5.93;;;0.73;;
31728;SDS011;18309;43.658;1.312;2024-02-23T10:02:37;7.75;;;0.70;;
31728;SDS011;18309;43.658;1.312;2024-02-23T10:05:06;3.50;;;0.73;;
31728;SDS011;18309;43.658;1.312;2024-02-23T10:07:32;5.60;;;0.80;;
31728;SDS011;18309;43.658;1.312;2024-02-23T10:09:58;6.05;;;0.60;;
31728;SDS011;18309;43.658;1.312;2024-02-23T10:12:24;4.75;;;0.52;;
31728;SDS011;18309;43.658;1.312;2024-02-23T10:14:49;2.38;;;0.60;;
31728;SDS011;18309;43.658;1.312;2024-02-23T10:17:15;4.28;;;0.73;;
31728;SDS011;18309;43.658;1.312;2024-02-23T10:19:41;4.03;;;0.52;;
31728;SDS011;18309;43.658;1.312;2024-02-23T10:22:06;4.75;;;0.77;;
31728;SDS011;18309;43.658;1.312;2024-02-23T10:24:32;2.08;;;0.63;;
31728;SDS011;18309;43.658;1.312;2024-02-23T10:26:58;2.90;;;0.60;;
31728;SDS011;18309;43.658;1.312;2024-02-23T10:29:25;7.97;;;1.00;;
31728;SDS011;18309;43.658;1.312;2024-02-23T10:31:51;3.92;;;0.45;;
31728;SDS011;18309;43.658;1.312;2024-02-23T10:34:18;5.47;;;0.70;;
31728;SDS011;18309;43.658;1.312;2024-02-23T10:36:45;4.57;;;0.40;;
31728;SDS011;18309;43.658;1.312;2024-02-23T10:39:15;3.30;;;0.60;;
31728;SDS011;18309;43.658;1.312;2024-02-23T10:41:44;5.15;;;0.60;;
31728;SDS011;18309;43.658;1.312;2024-02-23T10:44:13;1.40;;;0.30;;
31728;SDS011;18309;43.658;1.312;2024-02-23T10:46:42;2.08;;;0.47;;
31728;SDS011;18309;43.658;1.312;2024-02-23T10:49:09;2.42;;;0.40;;
31728;SDS011;18309;43.658;1.312;2024-02-23T10:51:36;2.13;;;0.25;;
31728;SDS011;18309;43.658;1.312;2024-02-23T10:54:05;4.28;;;0.52;;
31728;SDS011;18309;43.658;1.312;2024-02-23T10:56:31;2.88;;;0.40;;
31728;SDS011;18309;43.658;1.312;2024-02-23T10:58:57;1.85;;;0.38;;
31728;SDS011;18309;43.658;1.312;2024-02-23T11:01:22;4.55;;;0.60;;
31728;SDS011;18309;43.658;1.312;2024-02-23T11:03:49;2.90;;;0.30;;
31728;SDS011;18309;43.658;1.312;2024-02-23T11:06:18;6.22;;;0.80;;
31728;SDS011;18309;43.658;1.312;2024-02-23T11:08:46;3.65;;;0.40;;
31728;SDS011;18309;43.658;1.312;2024-02-23T11:11:15;2.10;;;0.50;;
31728;SDS011;18309;43.658;1.312;2024-02-23T11:13:44;5.22;;;0.65;;
31728;SDS011;18309;43.658;1.312;2024-02-23T11:16:11;4.95;;;0.70;;
31728;SDS011;18309;43.658;1.312;2024-02-23T11:18:48;3.92;;;0.70;;
31728;SDS011;18309;43.658;1.312;2024-02-23T11:21:14;5.00;;;0.50;;
31728;SDS011;18309;43.658;1.312;2024-02-23T11:23:43;3.72;;;0.55;;
31728;SDS011;18309;43.658;1.312;2024-02-23T11:26:09;4.70;;;1.10;;
31728;SDS011;18309;43.658;1.312;2024-02-23T11:28:49;7.97;;;0.70;;
31728;SDS011;18309;43.658;1.312;2024-02-23T11:31:20;3.05;;;0.40;;
31728;SDS011;18309;43.658;1.312;2024-02-23T11:33:50;9.85;;;0.40;;
31728;SDS011;18309;43.658;1.312;2024-02-23T11:38:57;10.07;;;0.77;;
31728;SDS011;18309;43.658;1.312;2024-02-23T11:41:24;6.25;;;0.70;;
31728;SDS011;18309;43.658;1.312;2024-02-23T11:43:51;8.88;;;0.70;;
31728;SDS011;18309;43.658;1.312;2024-02-23T11:46:18;2.85;;;0.70;;
31728;SDS011;18309;43.658;1.312;2024-02-23T11:48:44;3.13;;;0.60;;
31728;SDS011;18309;43.658;1.312;2024-02-23T11:51:18;3.20;;;0.70;;
31728;SDS011;18309;43.658;1.312;2024-02-23T11:53:45;10.50;;;0.98;;
31728;SDS011;18309;43.658;1.312;2024-02-23T11:56:12;4.20;;;0.43;;
31728;SDS011;18309;43.658;1.312;2024-02-23T11:58:39;2.00;;;0.43;;
31728;SDS011;18309;43.658;1.312;2024-02-23T12:01:05;3.65;;;0.57;;
31728;SDS011;18309;43.658;1.312;2024-02-23T12:03:32;4.40;;;0.50;;
31728;SDS011;18309;43.658;1.312;2024-02-23T12:05:58;4.53;;;0.60;;
31728;SDS011;18309;43.658;1.312;2024-02-23T12:08:31;0.80;;;0.15;;
31728;SDS011;18309;43.658;1.312;2024-02-23T12:11:02;2.40;;;0.75;;
31728;SDS011;18309;43.658;1.312;2024-02-23T12:13:29;4.88;;;0.85;;
31728;SDS011;18309;43.658;1.312;2024-02-23T12:15:55;2.80;;;0.38;;
31728;SDS011;18309;43.658;1.312;2024-02-23T12:18:21;1.67;;;0.40;;
31728;SDS011;18309;43.658;1.312;2024-02-23T12:21:00;2.75;;;0.60;;
31728;SDS011;18309;43.658;1.312;2024-02-23T12:23:41;2.45;;;0.20;;
31728;SDS011;18309;43.658;1.312;2024-02-23T12:26:08;1.85;;;0.60;;
31728;SDS011;18309;43.658;1.312;2024-02-23T12:28:34;2.50;;;0.30;;
31728;SDS011;18309;43.658;1.312;2024-02-23T12:31:00;0.45;;;0.20;;
31728;SDS011;18309;43.658;1.312;2024-02-23T12:33:28;3.10;;;0.73;;
31728;SDS011;18309;43.658;1.312;2024-02-23T12:35:55;1.20;;;0.40;;
31728;SDS011;18309;43.658;1.312;2024-02-23T12:38:21;4.60;;;0.90;;
31728;SDS011;18309;43.658;1.312;2024-02-23T12:40:47;2.80;;;0.80;;
31728;SDS011;18309;43.658;1.312;2024-02-23T12:43:13;8.63;;;1.20;;
31728;SDS011;18309;43.658;1.312;2024-02-23T12:45:39;3.47;;;0.82;;
31728;SDS011;18309;43.658;1.312;2024-02-23T12:48:05;4.05;;;0.88;;
31728;SDS011;18309;43.658;1.312;2024-02-23T12:50:31;6.68;;;0.70;;
31728;SDS011;18309;43.658;1.312;2024-02-23T12:52:57;4.03;;;0.43;;
31728;SDS011;18309;43.658;1.312;2024-02-23T12:55:23;3.15;;;0.45;;
31728;SDS011;18309;43.658;1.312;2024-02-23T12:57:48;1.60;;;0.35;;
31728;SDS011;18309;43.658;1.312;2024-02-23T13:00:14;4.28;;;0.90;;
31728;SDS011;18309;43.658;1.312;2024-02-23T13:02:40;4.03;;;0.50;;
31728;SDS011;18309;43.658;1.312;2024-02-23T13:05:06;9.23;;;1.15;;
31728;SDS011;18309;43.658;1.312;2024-02-23T13:07:32;6.97;;;1.33;;
31728;SDS011;18309;43.658;1.312;2024-02-23T13:09:58;4.10;;;0.98;;
31728;SDS011;18309;43.658;1.312;2024-02-23T13:12:23;7.60;;;0.88;;
31728;SDS011;18309;43.658;1.312;2024-02-23T13:14:50;2.67;;;0.13;;
31728;SDS011;18309;43.658;1.312;2024-02-23T13:17:16;3.45;;;0.40;;
31728;SDS011;18309;43.658;1.312;2024-02-23T13:19:43;2.20;;;0.40;;
31728;SDS011;18309;43.658;1.312;2024-02-23T13:22:08;4.20;;;0.40;;
31728;SDS011;18309;43.658;1.312;2024-02-23T13:24:34;7.68;;;0.50;;
31728;SDS011;18309;43.658;1.312;2024-02-23T13:27:01;2.55;;;0.40;;
31728;SDS011;18309;43.658;1.312;2024-02-23T13:29:27;1.45;;;0.32;;
31728;SDS011;18309;43.658;1.312;2024-02-23T13:31:52;1.00;;;0.25;;
31728;SDS011;18309;43.658;1.312;2024-02-23T13:34:18;3.55;;;0.30;;
31728;SDS011;18309;43.658;1.312;2024-02-23T13:36:44;3.72;;;0.70;;
31728;SDS011;18309;43.658;1.312;2024-02-23T13:39:11;3.03;;;0.80;;
31728;SDS011;18309;43.658;1.312;2024-02-23T13:41:37;1.73;;;0.30;;
31728;SDS011;18309;43.658;1.312;2024-02-23T13:44:03;2.63;;;0.30;;
31728;SDS011;18309;43.658;1.312;2024-02-23T13:46:29;2.92;;;0.32;;
31728;SDS011;18309;43.658;1.312;2024-02-23T13:49:05;6.60;;;0.90;;
31728;SDS011;18309;43.658;1.312;2024-02-23T13:51:32;1.20;;;0.20;;
31728;SDS011;18309;43.658;1.312;2024-02-23T13:53:58;2.55;;;0.38;;
31728;SDS011;18309;43.658;1.312;2024-02-23T13:56:24;2.15;;;0.35;;
31728;SDS011;18309;43.658;1.312;2024-02-23T13:58:50;2.47;;;0.25;;
31728;SDS011;18309;43.658;1.312;2024-02-23T14:01:16;1.15;;;0.20;;
31728;SDS011;18309;43.658;1.312;2024-02-23T14:03:41;2.35;;;0.35;;
31728;SDS011;18309;43.658;1.312;2024-02-23T14:06:08;2.53;;;0.30;;
31728;SDS011;18309;43.658;1.312;2024-02-23T14:08:34;1.30;;;0.40;;
31728;SDS011;18309;43.658;1.312;2024-02-23T14:11:02;1.38;;;0.35;;
31728;SDS011;18309;43.658;1.312;2024-02-23T14:13:30;3.58;;;0.30;;
31728;SDS011;18309;43.658;1.312;2024-02-23T14:15:57;3.50;;;0.35;;
31728;SDS011;18309;43.658;1.312;2024-02-23T14:18:23;2.85;;;0.30;;
31728;SDS011;18309;43.658;1.312;2024-02-23T14:20:49;3.03;;;0.30;;
31728;SDS011;18309;43.658;1.312;2024-02-23T14:23:17;2.75;;;0.30;;
31728;SDS011;18309;43.658;1.312;2024-02-23T14:25:43;3.53;;;0.60;;
31728;SDS011;18309;43.658;1.312;2024-02-23T14:28:08;3.03;;;0.40;;
31728;SDS011;18309;43.658;1.312;2024-02-23T14:30:34;3.25;;;0.55;;
31728;SDS011;18309;43.658;1.312;2024-02-23T14:33:03;3.03;;;0.30;;
31728;SDS011;18309;43.658;1.312;2024-02-23T14:35:29;5.60;;;0.43;;
31728;SDS011;18309;43.658;1.312;2024-02-23T14:37:54;1.73;;;0.35;;
31728;SDS011;18309;43.658;1.312;2024-02-23T14:40:20;2.65;;;0.40;;